sensor_id;sensor_type;location;lat;lon;timestamp;P1;durP1;ratioP1;P2;durP2;ratioP2
7406;SDS011;3745;56.964;24.128;2023-08-30T05:01:10;7.72;;;4.47;;
7406;SDS011;3745;56.964;24.128;2023-08-30T05:04:05;6.88;;;4.28;;
7406;SDS011;3745;56.964;24.128;2023-08-30T05:06:34;4.95;;;3.95;;
7406;SDS011;3745;56.964;24.128;2023-08-30T05:08:59;4.78;;;4.03;;
7406;SDS011;3745;56.964;24.128;2023-08-30T05:11:25;2.55;;;2.40;;
7406;SDS011;3745;56.964;24.128;2023-08-30T05:13:56;8.45;;;3.65;;
7406;SDS011;3745;56.964;24.128;2023-08-30T05:16:25;3.33;;;2.85;;
7406;SDS011;3745;56.964;24.128;2023-08-30T05:21:47;0.00;;;0.00;;
7406;SDS011;3745;56.964;24.128;2023-08-30T05:24:17;0.00;;;0.00;;
7406;SDS011;3745;56.964;24.128;2023-08-30T05:27:18;0.00;;;0.00;;
7406;SDS011;3745;56.964;24.128;2023-08-30T05:29:44;0.10;;;0.10;;
7406;SDS011;3745;56.964;24.128;2023-08-30T05:32:12;0.80;;;0.70;;
7406;SDS011;3745;56.964;24.128;2023-08-30T05:34:56;0.10;;;0.10;;
7406;SDS011;3745;56.964;24.128;2023-08-30T05:37:44;1.73;;;1.63;;
7406;SDS011;3745;56.964;24.128;2023-08-30T05:40:22;0.28;;;0.15;;
7406;SDS011;3745;56.964;24.128;2023-08-30T05:43:05;0.00;;;0.00;;
7406;SDS011;3745;56.964;24.128;2023-08-30T05:45:58;1.85;;;0.32;;
7406;SDS011;3745;56.964;24.128;2023-08-30T06:07:55;4.13;;;3.72;;
7406;SDS011;3745;56.964;24.128;2023-08-30T06:13:43;5.68;;;3.90;;
7406;SDS011;3745;56.964;24.128;2023-08-30T06:19:31;3.95;;;3.00;;
7406;SDS011;3745;56.964;24.128;2023-08-30T06:22:17;0.00;;;0.00;;
7406;SDS011;3745;56.964;24.128;2023-08-30T06:24:42;0.00;;;0.00;;
7406;SDS011;3745;56.964;24.128;2023-08-30T06:27:09;0.00;;;0.00;;
7406;SDS011;3745;56.964;24.128;2023-08-30T06:29:54;0.00;;;0.00;;
7406;SDS011;3745;56.964;24.128;2023-08-30T06:32:24;0.00;;;0.00;;
7406;SDS011;3745;56.964;24.128;2023-08-30T06:34:50;0.10;;;0.10;;
7406;SDS011;3745;56.964;24.128;2023-08-30T06:37:21;0.47;;;0.47;;
7406;SDS011;3745;56.964;24.128;2023-08-30T06:39:50;0.00;;;0.00;;
7406;SDS011;3745;56.964;24.128;2023-08-30T06:42:27;0.00;;;0.00;;
7406;SDS011;3745;56.964;24.128;2023-08-30T06:44:59;0.00;;;0.00;;
7406;SDS011;3745;56.964;24.128;2023-08-30T06:47:40;0.10;;;0.10;;
7406;SDS011;3745;56.964;24.128;2023-08-30T06:50:22;1.20;;;0.80;;
7406;SDS011;3745;56.964;24.128;2023-08-30T06:52:51;0.00;;;0.00;;
7406;SDS011;3745;56.964;24.128;2023-08-30T06:55:24;0.00;;;0.00;;
7406;SDS011;3745;56.964;24.128;2023-08-30T06:58:03;0.00;;;0.00;;
7406;SDS011;3745;56.964;24.128;2023-08-30T07:00:56;0.10;;;0.10;;
7406;SDS011;3745;56.964;24.128;2023-08-30T07:03:22;0.28;;;0.28;;
7406;SDS011;3745;56.964;24.128;2023-08-30T07:05:51;0.00;;;0.00;;
7406;SDS011;3745;56.964;24.128;2023-08-30T07:08:17;0.00;;;0.00;;
7406;SDS011;3745;56.964;24.128;2023-08-30T07:10:43;0.10;;;0.10;;
7406;SDS011;3745;56.964;24.128;2023-08-30T07:13:09;0.00;;;0.00;;
7406;SDS011;3745;56.964;24.128;2023-08-30T07:15:43;0.30;;;0.30;;
7406;SDS011;3745;56.964;24.128;2023-08-30T07:18:12;0.05;;;0.05;;
7406;SDS011;3745;56.964;24.128;2023-08-30T07:20:38;0.38;;;0.38;;
7406;SDS011;3745;56.964;24.128;2023-08-30T07:23:04;0.00;;;0.00;;
7406;SDS011;3745;56.964;24.128;2023-08-30T07:25:30;0.00;;;0.00;;
7406;SDS011;3745;56.964;24.128;2023-08-30T07:27:58;0.20;;;0.20;;
7406;SDS011;3745;56.964;24.128;2023-08-30T07:30:24;0.00;;;0.00;;
7406;SDS011;3745;56.964;24.128;2023-08-30T07:32:50;0.43;;;0.43;;
7406;SDS011;3745;56.964;24.128;2023-08-30T07:35:16;0.00;;;0.00;;
7406;SDS011;3745;56.964;24.128;2023-08-30T07:37:45;0.10;;;0.10;;
7406;SDS011;3745;56.964;24.128;2023-08-30T07:40:10;0.08;;;0.08;;
7406;SDS011;3745;56.964;24.128;2023-08-30T07:42:37;0.00;;;0.00;;
7406;SDS011;3745;56.964;24.128;2023-08-30T07:45:02;0.00;;;0.00;;
7406;SDS011;3745;56.964;24.128;2023-08-30T07:47:29;0.10;;;0.10;;
7406;SDS011;3745;56.964;24.128;2023-08-30T07:49:55;5.38;;;4.90;;
7406;SDS011;3745;56.964;24.128;2023-08-30T07:52:23;0.10;;;0.10;;
7406;SDS011;3745;56.964;24.128;2023-08-30T07:54:49;0.00;;;0.00;;
7406;SDS011;3745;56.964;24.128;2023-08-30T07:57:18;0.00;;;0.00;;
7406;SDS011;3745;56.964;24.128;2023-08-30T07:59:44;0.00;;;0.00;;
7406;SDS011;3745;56.964;24.128;2023-08-30T08:02:18;0.00;;;0.00;;
7406;SDS011;3745;56.964;24.128;2023-08-30T08:04:59;0.20;;;0.20;;
7406;SDS011;3745;56.964;24.128;2023-08-30T08:10:45;0.10;;;0.10;;
7406;SDS011;3745;56.964;24.128;2023-08-30T08:13:20;0.10;;;0.10;;
7406;SDS011;3745;56.964;24.128;2023-08-30T08:15:48;0.10;;;0.10;;
7406;SDS011;3745;56.964;24.128;2023-08-30T08:21:27;0.10;;;0.10;;
7406;SDS011;3745;56.964;24.128;2023-08-30T08:23:53;0.10;;;0.10;;
7406;SDS011;3745;56.964;24.128;2023-08-30T08:26:22;0.00;;;0.00;;
7406;SDS011;3745;56.964;24.128;2023-08-30T08:29:13;0.10;;;0.10;;
7406;SDS011;3745;56.964;24.128;2023-08-30T08:31:54;0.22;;;0.22;;
7406;SDS011;3745;56.964;24.128;2023-08-30T08:34:25;0.00;;;0.00;;
7406;SDS011;3745;56.964;24.128;2023-08-30T08:37:02;0.00;;;0.00;;
7406;SDS011;3745;56.964;24.128;2023-08-30T08:39:53;0.00;;;0.00;;
7406;SDS011;3745;56.964;24.128;2023-08-30T08:42:47;0.00;;;0.00;;
7406;SDS011;3745;56.964;24.128;2023-08-30T08:45:16;0.10;;;0.10;;
7406;SDS011;3745;56.964;24.128;2023-08-30T08:47:42;2.40;;;2.20;;
7406;SDS011;3745;56.964;24.128;2023-08-30T08:50:10;0.00;;;0.00;;
7406;SDS011;3745;56.964;24.128;2023-08-30T08:52:41;0.00;;;0.00;;
7406;SDS011;3745;56.964;24.128;2023-08-30T08:55:25;0.20;;;0.20;;
7406;SDS011;3745;56.964;24.128;2023-08-30T09:03:58;0.10;;;0.10;;
7406;SDS011;3745;56.964;24.128;2023-08-30T09:06:25;0.10;;;0.10;;
7406;SDS011;3745;56.964;24.128;2023-08-30T09:08:54;0.10;;;0.10;;
7406;SDS011;3745;56.964;24.128;2023-08-30T09:11:36;0.00;;;0.00;;
7406;SDS011;3745;56.964;24.128;2023-08-30T09:14:34;0.00;;;0.00;;
7406;SDS011;3745;56.964;24.128;2023-08-30T09:17:20;0.10;;;0.10;;
7406;SDS011;3745;56.964;24.128;2023-08-30T09:19:49;0.00;;;0.00;;
7406;SDS011;3745;56.964;24.128;2023-08-30T09:22:21;0.10;;;0.10;;
7406;SDS011;3745;56.964;24.128;2023-08-30T09:25:27;0.00;;;0.00;;
7406;SDS011;3745;56.964;24.128;2023-08-30T09:27:58;0.10;;;0.10;;
7406;SDS011;3745;56.964;24.128;2023-08-30T09:30:31;0.00;;;0.00;;
7406;SDS011;3745;56.964;24.128;2023-08-30T09:33:07;0.00;;;0.00;;
7406;SDS011;3745;56.964;24.128;2023-08-30T09:35:43;0.00;;;0.00;;
7406;SDS011;3745;56.964;24.128;2023-08-30T09:38:15;0.20;;;0.20;;
7406;SDS011;3745;56.964;24.128;2023-08-30T09:40:44;0.00;;;0.00;;
7406;SDS011;3745;56.964;24.128;2023-08-30T09:43:11;0.10;;;0.10;;
7406;SDS011;3745;56.964;24.128;2023-08-30T09:45:37;0.00;;;0.00;;
7406;SDS011;3745;56.964;24.128;2023-08-30T09:48:05;0.00;;;0.00;;
7406;SDS011;3745;56.964;24.128;2023-08-30T09:50:33;0.00;;;0.00;;
7406;SDS011;3745;56.964;24.128;2023-08-30T09:53:10;0.20;;;0.20;;
7406;SDS011;3745;56.964;24.128;2023-08-30T09:55:40;0.00;;;0.00;;
7406;SDS011;3745;56.964;24.128;2023-08-30T09:58:13;0.10;;;0.10;;
7406;SDS011;3745;56.964;24.128;2023-08-30T10:00:39;0.00;;;0.00;;
7406;SDS011;3745;56.964;24.128;2023-08-30T10:03:07;0.00;;;0.00;;
7406;SDS011;3745;56.964;24.128;2023-08-30T10:05:35;0.00;;;0.00;;
7406;SDS011;3745;56.964;24.128;2023-08-30T10:08:02;0.00;;;0.00;;
7406;SDS011;3745;56.964;24.128;2023-08-30T10:10:30;0.30;;;0.30;;
7406;SDS011;3745;56.964;24.128;2023-08-30T10:12:57;0.38;;;0.38;;
7406;SDS011;3745;56.964;24.128;2023-08-30T10:15:23;0.00;;;0.00;;
7406;SDS011;3745;56.964;24.128;2023-08-30T10:17:53;1.58;;;0.80;;
7406;SDS011;3745;56.964;24.128;2023-08-30T10:20:21;0.10;;;0.10;;
7406;SDS011;3745;56.964;24.128;2023-08-30T10:22:48;0.00;;;0.00;;
7406;SDS011;3745;56.964;24.128;2023-08-30T10:25:19;0.25;;;0.25;;
7406;SDS011;3745;56.964;24.128;2023-08-30T10:27:57;0.10;;;0.10;;
7406;SDS011;3745;56.964;24.128;2023-08-30T10:30:26;0.00;;;0.00;;
7406;SDS011;3745;56.964;24.128;2023-08-30T10:32:59;0.00;;;0.00;;
7406;SDS011;3745;56.964;24.128;2023-08-30T10:35:28;0.15;;;0.15;;
7406;SDS011;3745;56.964;24.128;2023-08-30T10:37:58;0.10;;;0.10;;
7406;SDS011;3745;56.964;24.128;2023-08-30T10:40:25;0.00;;;0.00;;
7406;SDS011;3745;56.964;24.128;2023-08-30T10:43:03;0.47;;;0.38;;
7406;SDS011;3745;56.964;24.128;2023-08-30T10:45:36;0.00;;;0.00;;
7406;SDS011;3745;56.964;24.128;2023-08-30T10:48:02;0.00;;;0.00;;
7406;SDS011;3745;56.964;24.128;2023-08-30T10:50:29;0.00;;;0.00;;
7406;SDS011;3745;56.964;24.128;2023-08-30T10:56:53;0.30;;;0.30;;
7406;SDS011;3745;56.964;24.128;2023-08-30T11:08:43;0.10;;;0.10;;
7406;SDS011;3745;56.964;24.128;2023-08-30T11:11:17;0.10;;;0.10;;
7406;SDS011;3745;56.964;24.128;2023-08-30T11:14:19;0.20;;;0.20;;
7406;SDS011;3745;56.964;24.128;2023-08-30T11:19:51;0.00;;;0.00;;
7406;SDS011;3745;56.964;24.128;2023-08-30T11:22:23;1.00;;;0.93;;
7406;SDS011;3745;56.964;24.128;2023-08-30T11:24:49;0.70;;;0.70;;
7406;SDS011;3745;56.964;24.128;2023-08-30T11:27:18;0.00;;;0.00;;
7406;SDS011;3745;56.964;24.128;2023-08-30T11:29:43;0.10;;;0.10;;
7406;SDS011;3745;56.964;24.128;2023-08-30T11:32:09;0.00;;;0.00;;
7406;SDS011;3745;56.964;24.128;2023-08-30T11:34:35;0.10;;;0.10;;
7406;SDS011;3745;56.964;24.128;2023-08-30T11:37:03;0.00;;;0.00;;
7406;SDS011;3745;56.964;24.128;2023-08-30T11:39:29;0.20;;;0.20;;
7406;SDS011;3745;56.964;24.128;2023-08-30T11:48:31;0.00;;;0.00;;
7406;SDS011;3745;56.964;24.128;2023-08-30T11:54:48;0.10;;;0.10;;
7406;SDS011;3745;56.964;24.128;2023-08-30T11:57:20;1.08;;;0.98;;
7406;SDS011;3745;56.964;24.128;2023-08-30T12:03:29;0.20;;;0.20;;
7406;SDS011;3745;56.964;24.128;2023-08-30T12:05:55;0.00;;;0.00;;
7406;SDS011;3745;56.964;24.128;2023-08-30T12:08:25;0.00;;;0.00;;
7406;SDS011;3745;56.964;24.128;2023-08-30T12:11:01;0.20;;;0.20;;
7406;SDS011;3745;56.964;24.128;2023-08-30T12:13:37;0.00;;;0.00;;
7406;SDS011;3745;56.964;24.128;2023-08-30T12:16:02;0.57;;;0.57;;
7406;SDS011;3745;56.964;24.128;2023-08-30T12:18:37;0.00;;;0.00;;
7406;SDS011;3745;56.964;24.128;2023-08-30T12:21:03;0.10;;;0.10;;
7406;SDS011;3745;56.964;24.128;2023-08-30T12:23:30;0.20;;;0.20;;
7406;SDS011;3745;56.964;24.128;2023-08-30T12:26:04;0.00;;;0.00;;
7406;SDS011;3745;56.964;24.128;2023-08-30T12:28:31;0.10;;;0.10;;
7406;SDS011;3745;56.964;24.128;2023-08-30T12:31:00;0.10;;;0.10;;
7406;SDS011;3745;56.964;24.128;2023-08-30T12:33:26;2.65;;;1.10;;
7406;SDS011;3745;56.964;24.128;2023-08-30T12:35:53;0.10;;;0.10;;
7406;SDS011;3745;56.964;24.128;2023-08-30T12:38:19;31.58;;;1.67;;
7406;SDS011;3745;56.964;24.128;2023-08-30T12:40:48;0.00;;;0.00;;
7406;SDS011;3745;56.964;24.128;2023-08-30T12:43:15;0.65;;;0.65;;
7406;SDS011;3745;56.964;24.128;2023-08-30T12:45:42;0.55;;;0.55;;
7406;SDS011;3745;56.964;24.128;2023-08-30T12:48:09;0.10;;;0.10;;
7406;SDS011;3745;56.964;24.128;2023-08-30T12:50:35;0.10;;;0.10;;
7406;SDS011;3745;56.964;24.128;2023-08-30T12:53:05;0.00;;;0.00;;
7406;SDS011;3745;56.964;24.128;2023-08-30T12:55:31;0.00;;;0.00;;
7406;SDS011;3745;56.964;24.128;2023-08-30T12:57:57;0.00;;;0.00;;
7406;SDS011;3745;56.964;24.128;2023-08-30T13:00:24;0.10;;;0.10;;
7406;SDS011;3745;56.964;24.128;2023-08-30T13:02:49;0.00;;;0.00;;
7406;SDS011;3745;56.964;24.128;2023-08-30T13:05:15;0.00;;;0.00;;
7406;SDS011;3745;56.964;24.128;2023-08-30T13:07:41;0.13;;;0.13;;
7406;SDS011;3745;56.964;24.128;2023-08-30T13:10:07;0.00;;;0.00;;
7406;SDS011;3745;56.964;24.128;2023-08-30T13:12:37;0.10;;;0.10;;
7406;SDS011;3745;56.964;24.128;2023-08-30T13:15:06;0.00;;;0.00;;
7406;SDS011;3745;56.964;24.128;2023-08-30T13:17:35;0.57;;;0.57;;
7406;SDS011;3745;56.964;24.128;2023-08-30T13:20:01;0.63;;;0.63;;
7406;SDS011;3745;56.964;24.128;2023-08-30T13:22:28;0.10;;;0.10;;
7406;SDS011;3745;56.964;24.128;2023-08-30T13:24:54;0.00;;;0.00;;
7406;SDS011;3745;56.964;24.128;2023-08-30T13:27:20;0.10;;;0.10;;
7406;SDS011;3745;56.964;24.128;2023-08-30T13:29:46;0.00;;;0.00;;
7406;SDS011;3745;56.964;24.128;2023-08-30T13:32:12;2.28;;;0.60;;
7406;SDS011;3745;56.964;24.128;2023-08-30T13:34:37;0.00;;;0.00;;
7406;SDS011;3745;56.964;24.128;2023-08-30T13:37:04;0.00;;;0.00;;
7406;SDS011;3745;56.964;24.128;2023-08-30T13:39:30;0.10;;;0.10;;
7406;SDS011;3745;56.964;24.128;2023-08-30T13:41:56;0.15;;;0.15;;
7406;SDS011;3745;56.964;24.128;2023-08-30T13:44:33;0.15;;;0.15;;
7406;SDS011;3745;56.964;24.128;2023-08-30T13:47:39;0.00;;;0.00;;
7406;SDS011;3745;56.964;24.128;2023-08-30T13:59:44;0.00;;;0.00;;
7406;SDS011;3745;56.964;24.128;2023-08-30T14:02:10;0.75;;;0.75;;
7406;SDS011;3745;56.964;24.128;2023-08-30T14:04:35;0.10;;;0.10;;
7406;SDS011;3745;56.964;24.128;2023-08-30T14:07:02;0.82;;;0.82;;
7406;SDS011;3745;56.964;24.128;2023-08-30T14:09:28;0.10;;;0.10;;
7406;SDS011;3745;56.964;24.128;2023-08-30T14:11:54;0.90;;;0.32;;
7406;SDS011;3745;56.964;24.128;2023-08-30T14:14:20;1.50;;;1.50;;
7406;SDS011;3745;56.964;24.128;2023-08-30T14:16:46;0.05;;;0.05;;
7406;SDS011;3745;56.964;24.128;2023-08-30T14:19:12;0.15;;;0.15;;
7406;SDS011;3745;56.964;24.128;2023-08-30T14:21:37;0.00;;;0.00;;
7406;SDS011;3745;56.964;24.128;2023-08-30T14:24:03;0.00;;;0.00;;
7406;SDS011;3745;56.964;24.128;2023-08-30T14:26:29;0.10;;;0.10;;
7406;SDS011;3745;56.964;24.128;2023-08-30T14:28:55;0.00;;;0.00;;
7406;SDS011;3745;56.964;24.128;2023-08-30T14:31:21;0.20;;;0.20;;
7406;SDS011;3745;56.964;24.128;2023-08-30T14:33:46;0.20;;;0.20;;
7406;SDS011;3745;56.964;24.128;2023-08-30T14:36:12;0.10;;;0.10;;
7406;SDS011;3745;56.964;24.128;2023-08-30T14:38:39;2.50;;;0.73;;
7406;SDS011;3745;56.964;24.128;2023-08-30T14:41:06;1.02;;;0.95;;
7406;SDS011;3745;56.964;24.128;2023-08-30T14:43:32;0.10;;;0.10;;
7406;SDS011;3745;56.964;24.128;2023-08-30T14:48:33;0.30;;;0.30;;
7406;SDS011;3745;56.964;24.128;2023-08-30T14:51:00;0.52;;;0.32;;
7406;SDS011;3745;56.964;24.128;2023-08-30T14:53:26;0.85;;;0.85;;
7406;SDS011;3745;56.964;24.128;2023-08-30T14:55:52;0.10;;;0.10;;
7406;SDS011;3745;56.964;24.128;2023-08-30T14:58:19;0.00;;;0.00;;
7406;SDS011;3745;56.964;24.128;2023-08-30T15:00:47;0.00;;;0.00;;
7406;SDS011;3745;56.964;24.128;2023-08-30T15:03:13;0.10;;;0.10;;
7406;SDS011;3745;56.964;24.128;2023-08-30T15:05:38;0.40;;;0.40;;
7406;SDS011;3745;56.964;24.128;2023-08-30T15:08:04;0.10;;;0.10;;
7406;SDS011;3745;56.964;24.128;2023-08-30T15:10:30;0.03;;;0.03;;
7406;SDS011;3745;56.964;24.128;2023-08-30T15:12:56;0.10;;;0.10;;
7406;SDS011;3745;56.964;24.128;2023-08-30T15:15:21;0.00;;;0.00;;
7406;SDS011;3745;56.964;24.128;2023-08-30T15:17:47;0.20;;;0.20;;
7406;SDS011;3745;56.964;24.128;2023-08-30T15:20:12;0.10;;;0.10;;
7406;SDS011;3745;56.964;24.128;2023-08-30T15:22:38;0.00;;;0.00;;
7406;SDS011;3745;56.964;24.128;2023-08-30T15:25:03;0.10;;;0.10;;
7406;SDS011;3745;56.964;24.128;2023-08-30T15:27:32;0.00;;;0.00;;
7406;SDS011;3745;56.964;24.128;2023-08-30T15:29:59;0.00;;;0.00;;
7406;SDS011;3745;56.964;24.128;2023-08-30T15:32:24;0.10;;;0.10;;
7406;SDS011;3745;56.964;24.128;2023-08-30T15:34:50;0.10;;;0.10;;
7406;SDS011;3745;56.964;24.128;2023-08-30T15:37:17;0.00;;;0.00;;
7406;SDS011;3745;56.964;24.128;2023-08-30T15:39:43;0.10;;;0.10;;
7406;SDS011;3745;56.964;24.128;2023-08-30T15:42:08;0.10;;;0.10;;
7406;SDS011;3745;56.964;24.128;2023-08-30T15:44:34;0.00;;;0.00;;
7406;SDS011;3745;56.964;24.128;2023-08-30T15:46:59;0.00;;;0.00;;
7406;SDS011;3745;56.964;24.128;2023-08-30T15:49:25;0.00;;;0.00;;
7406;SDS011;3745;56.964;24.128;2023-08-30T15:51:50;0.52;;;0.52;;
7406;SDS011;3745;56.964;24.128;2023-08-30T15:54:16;0.10;;;0.10;;
7406;SDS011;3745;56.964;24.128;2023-08-30T15:56:41;0.10;;;0.10;;
7406;SDS011;3745;56.964;24.128;2023-08-30T15:59:09;0.00;;;0.00;;
7406;SDS011;3745;56.964;24.128;2023-08-30T16:01:35;0.00;;;0.00;;
7406;SDS011;3745;56.964;24.128;2023-08-30T16:04:01;0.00;;;0.00;;
7406;SDS011;3745;56.964;24.128;2023-08-30T16:06:26;0.00;;;0.00;;
7406;SDS011;3745;56.964;24.128;2023-08-30T16:08:52;0.00;;;0.00;;
7406;SDS011;3745;56.964;24.128;2023-08-30T16:11:17;0.10;;;0.10;;
7406;SDS011;3745;56.964;24.128;2023-08-30T16:13:43;0.00;;;0.00;;
7406;SDS011;3745;56.964;24.128;2023-08-30T16:16:09;0.10;;;0.10;;
7406;SDS011;3745;56.964;24.128;2023-08-30T16:18:35;0.10;;;0.10;;
7406;SDS011;3745;56.964;24.128;2023-08-30T16:21:03;0.00;;;0.00;;
7406;SDS011;3745;56.964;24.128;2023-08-30T16:23:29;0.00;;;0.00;;
7406;SDS011;3745;56.964;24.128;2023-08-30T16:26:00;0.10;;;0.10;;
7406;SDS011;3745;56.964;24.128;2023-08-30T16:28:26;0.10;;;0.10;;
7406;SDS011;3745;56.964;24.128;2023-08-30T16:30:55;0.10;;;0.10;;
7406;SDS011;3745;56.964;24.128;2023-08-30T16:33:24;0.10;;;0.10;;
7406;SDS011;3745;56.964;24.128;2023-08-30T16:35:50;0.88;;;0.70;;
7406;SDS011;3745;56.964;24.128;2023-08-30T16:38:15;0.10;;;0.10;;
7406;SDS011;3745;56.964;24.128;2023-08-30T16:40:41;0.05;;;0.05;;
7406;SDS011;3745;56.964;24.128;2023-08-30T16:43:06;0.20;;;0.20;;
7406;SDS011;3745;56.964;24.128;2023-08-30T16:45:32;0.57;;;0.57;;
7406;SDS011;3745;56.964;24.128;2023-08-30T16:47:58;0.00;;;0.00;;
7406;SDS011;3745;56.964;24.128;2023-08-30T16:50:23;0.00;;;0.00;;
7406;SDS011;3745;56.964;24.128;2023-08-30T16:52:49;0.68;;;0.68;;
7406;SDS011;3745;56.964;24.128;2023-08-30T16:55:14;0.00;;;0.00;;
7406;SDS011;3745;56.964;24.128;2023-08-30T16:57:41;0.20;;;0.20;;
7406;SDS011;3745;56.964;24.128;2023-08-30T17:00:07;0.90;;;0.90;;
7406;SDS011;3745;56.964;24.128;2023-08-30T17:02:34;0.38;;;0.38;;
7406;SDS011;3745;56.964;24.128;2023-08-30T17:05:01;0.10;;;0.10;;
7406;SDS011;3745;56.964;24.128;2023-08-30T17:07:27;0.10;;;0.10;;
7406;SDS011;3745;56.964;24.128;2023-08-30T17:09:52;0.20;;;0.20;;
7406;SDS011;3745;56.964;24.128;2023-08-30T17:12:18;0.00;;;0.00;;
7406;SDS011;3745;56.964;24.128;2023-08-30T17:14:43;0.03;;;0.03;;
7406;SDS011;3745;56.964;24.128;2023-08-30T17:17:09;0.10;;;0.10;;
7406;SDS011;3745;56.964;24.128;2023-08-30T17:19:34;0.10;;;0.10;;
7406;SDS011;3745;56.964;24.128;2023-08-30T17:22:00;0.10;;;0.10;;
7406;SDS011;3745;56.964;24.128;2023-08-30T17:24:25;0.00;;;0.00;;
7406;SDS011;3745;56.964;24.128;2023-08-30T17:26:51;1.77;;;1.02;;
7406;SDS011;3745;56.964;24.128;2023-08-30T17:29:16;0.00;;;0.00;;
7406;SDS011;3745;56.964;24.128;2023-08-30T17:31:43;0.00;;;0.00;;
7406;SDS011;3745;56.964;24.128;2023-08-30T17:34:09;0.00;;;0.00;;
7406;SDS011;3745;56.964;24.128;2023-08-30T17:36:42;0.10;;;0.10;;
7406;SDS011;3745;56.964;24.128;2023-08-30T17:39:21;4.15;;;1.20;;
7406;SDS011;3745;56.964;24.128;2023-08-30T17:42:06;0.10;;;0.10;;
7406;SDS011;3745;56.964;24.128;2023-08-30T17:44:35;0.13;;;0.13;;
7406;SDS011;3745;56.964;24.128;2023-08-30T17:47:09;0.10;;;0.10;;
7406;SDS011;3745;56.964;24.128;2023-08-30T17:49:35;0.03;;;0.03;;
7406;SDS011;3745;56.964;24.128;2023-08-30T17:52:01;0.90;;;0.90;;
7406;SDS011;3745;56.964;24.128;2023-08-30T17:54:30;0.00;;;0.00;;
7406;SDS011;3745;56.964;24.128;2023-08-30T17:57:15;0.00;;;0.00;;
7406;SDS011;3745;56.964;24.128;2023-08-30T17:59:52;0.00;;;0.00;;
7406;SDS011;3745;56.964;24.128;2023-08-30T18:02:20;0.00;;;0.00;;
7406;SDS011;3745;56.964;24.128;2023-08-30T18:05:04;2.08;;;0.90;;
7406;SDS011;3745;56.964;24.128;2023-08-30T18:10:43;0.00;;;0.00;;
7406;SDS011;3745;56.964;24.128;2023-08-30T18:13:08;0.10;;;0.10;;
7406;SDS011;3745;56.964;24.128;2023-08-30T18:15:37;0.00;;;0.00;;
7406;SDS011;3745;56.964;24.128;2023-08-30T18:18:06;0.10;;;0.10;;
7406;SDS011;3745;56.964;24.128;2023-08-30T18:20:32;0.00;;;0.00;;
7406;SDS011;3745;56.964;24.128;2023-08-30T18:22:59;0.00;;;0.00;;
7406;SDS011;3745;56.964;24.128;2023-08-30T18:25:24;0.80;;;0.52;;
7406;SDS011;3745;56.964;24.128;2023-08-30T18:27:50;0.00;;;0.00;;
7406;SDS011;3745;56.964;24.128;2023-08-30T18:30:16;0.08;;;0.08;;
7406;SDS011;3745;56.964;24.128;2023-08-30T18:32:41;0.10;;;0.10;;
7406;SDS011;3745;56.964;24.128;2023-08-30T18:35:08;0.47;;;0.47;;
7406;SDS011;3745;56.964;24.128;2023-08-30T18:37:35;0.10;;;0.10;;
7406;SDS011;3745;56.964;24.128;2023-08-30T18:40:01;0.00;;;0.00;;
7406;SDS011;3745;56.964;24.128;2023-08-30T18:42:26;0.00;;;0.00;;
7406;SDS011;3745;56.964;24.128;2023-08-30T18:44:55;0.00;;;0.00;;
7406;SDS011;3745;56.964;24.128;2023-08-30T18:47:20;0.00;;;0.00;;
7406;SDS011;3745;56.964;24.128;2023-08-30T18:49:47;0.00;;;0.00;;
7406;SDS011;3745;56.964;24.128;2023-08-30T18:52:13;0.00;;;0.00;;
7406;SDS011;3745;56.964;24.128;2023-08-30T18:54:38;0.00;;;0.00;;
7406;SDS011;3745;56.964;24.128;2023-08-30T18:57:09;0.10;;;0.10;;
7406;SDS011;3745;56.964;24.128;2023-08-30T18:59:35;0.10;;;0.10;;
7406;SDS011;3745;56.964;24.128;2023-08-30T19:02:02;0.10;;;0.10;;
7406;SDS011;3745;56.964;24.128;2023-08-30T19:04:28;0.00;;;0.00;;
7406;SDS011;3745;56.964;24.128;2023-08-30T19:06:54;0.00;;;0.00;;
7406;SDS011;3745;56.964;24.128;2023-08-30T19:09:20;0.10;;;0.10;;
7406;SDS011;3745;56.964;24.128;2023-08-30T19:11:45;0.10;;;0.10;;
7406;SDS011;3745;56.964;24.128;2023-08-30T19:14:11;0.00;;;0.00;;
7406;SDS011;3745;56.964;24.128;2023-08-30T19:16:36;0.00;;;0.00;;
7406;SDS011;3745;56.964;24.128;2023-08-30T19:19:02;0.00;;;0.00;;
7406;SDS011;3745;56.964;24.128;2023-08-30T19:21:29;0.00;;;0.00;;
7406;SDS011;3745;56.964;24.128;2023-08-30T19:23:55;0.00;;;0.00;;
7406;SDS011;3745;56.964;24.128;2023-08-30T19:26:21;0.00;;;0.00;;
7406;SDS011;3745;56.964;24.128;2023-08-30T19:28:49;0.05;;;0.05;;
7406;SDS011;3745;56.964;24.128;2023-08-30T19:31:15;0.10;;;0.10;;
7406;SDS011;3745;56.964;24.128;2023-08-30T19:33:41;0.10;;;0.10;;
7406;SDS011;3745;56.964;24.128;2023-08-30T19:36:06;0.10;;;0.10;;
7406;SDS011;3745;56.964;24.128;2023-08-30T19:38:32;0.00;;;0.00;;
7406;SDS011;3745;56.964;24.128;2023-08-30T19:40:58;0.00;;;0.00;;
7406;SDS011;3745;56.964;24.128;2023-08-30T19:43:25;0.10;;;0.10;;
7406;SDS011;3745;56.964;24.128;2023-08-30T19:46:04;0.00;;;0.00;;
7406;SDS011;3745;56.964;24.128;2023-08-30T19:48:30;0.00;;;0.00;;
7406;SDS011;3745;56.964;24.128;2023-08-30T19:50:57;0.00;;;0.00;;
7406;SDS011;3745;56.964;24.128;2023-08-30T19:53:24;0.00;;;0.00;;
7406;SDS011;3745;56.964;24.128;2023-08-30T19:55:49;0.30;;;0.30;;
7406;SDS011;3745;56.964;24.128;2023-08-30T19:58:17;0.10;;;0.10;;
7406;SDS011;3745;56.964;24.128;2023-08-30T20:00:44;0.00;;;0.00;;
7406;SDS011;3745;56.964;24.128;2023-08-30T20:03:16;0.00;;;0.00;;
7406;SDS011;3745;56.964;24.128;2023-08-30T20:05:45;0.30;;;0.30;;
7406;SDS011;3745;56.964;24.128;2023-08-30T20:08:17;0.00;;;0.00;;
7406;SDS011;3745;56.964;24.128;2023-08-30T20:10:43;0.00;;;0.00;;
7406;SDS011;3745;56.964;24.128;2023-08-30T20:13:09;0.10;;;0.10;;
7406;SDS011;3745;56.964;24.128;2023-08-30T20:15:37;0.00;;;0.00;;
7406;SDS011;3745;56.964;24.128;2023-08-30T20:18:04;0.10;;;0.10;;
7406;SDS011;3745;56.964;24.128;2023-08-30T20:20:34;0.00;;;0.00;;
7406;SDS011;3745;56.964;24.128;2023-08-30T20:23:02;0.00;;;0.00;;
7406;SDS011;3745;56.964;24.128;2023-08-30T20:25:28;0.00;;;0.00;;
7406;SDS011;3745;56.964;24.128;2023-08-30T20:27:55;0.00;;;0.00;;
7406;SDS011;3745;56.964;24.128;2023-08-30T20:30:21;0.00;;;0.00;;
7406;SDS011;3745;56.964;24.128;2023-08-30T20:32:46;0.00;;;0.00;;
7406;SDS011;3745;56.964;24.128;2023-08-30T20:35:12;0.00;;;0.00;;
7406;SDS011;3745;56.964;24.128;2023-08-30T20:37:38;0.00;;;0.00;;
7406;SDS011;3745;56.964;24.128;2023-08-30T20:40:03;0.00;;;0.00;;
7406;SDS011;3745;56.964;24.128;2023-08-30T20:42:29;0.00;;;0.00;;
7406;SDS011;3745;56.964;24.128;2023-08-30T20:44:55;0.10;;;0.10;;
7406;SDS011;3745;56.964;24.128;2023-08-30T20:47:21;0.00;;;0.00;;
7406;SDS011;3745;56.964;24.128;2023-08-30T20:49:46;0.00;;;0.00;;
7406;SDS011;3745;56.964;24.128;2023-08-30T20:52:12;0.00;;;0.00;;
7406;SDS011;3745;56.964;24.128;2023-08-30T20:54:37;0.00;;;0.00;;
7406;SDS011;3745;56.964;24.128;2023-08-30T20:57:03;0.30;;;0.30;;
7406;SDS011;3745;56.964;24.128;2023-08-30T20:59:29;0.10;;;0.10;;
7406;SDS011;3745;56.964;24.128;2023-08-30T21:01:55;0.00;;;0.00;;
7406;SDS011;3745;56.964;24.128;2023-08-30T21:04:20;0.10;;;0.10;;
7406;SDS011;3745;56.964;24.128;2023-08-30T21:06:46;0.00;;;0.00;;
7406;SDS011;3745;56.964;24.128;2023-08-30T21:09:11;0.10;;;0.10;;
7406;SDS011;3745;56.964;24.128;2023-08-30T21:11:37;0.00;;;0.00;;
7406;SDS011;3745;56.964;24.128;2023-08-30T21:14:02;0.00;;;0.00;;
7406;SDS011;3745;56.964;24.128;2023-08-30T21:16:28;0.00;;;0.00;;
7406;SDS011;3745;56.964;24.128;2023-08-30T21:18:54;0.10;;;0.10;;
7406;SDS011;3745;56.964;24.128;2023-08-30T21:21:19;0.10;;;0.10;;
7406;SDS011;3745;56.964;24.128;2023-08-30T21:23:45;0.10;;;0.10;;
7406;SDS011;3745;56.964;24.128;2023-08-30T21:26:11;0.00;;;0.00;;
7406;SDS011;3745;56.964;24.128;2023-08-30T21:28:37;0.00;;;0.00;;
7406;SDS011;3745;56.964;24.128;2023-08-30T21:31:03;0.00;;;0.00;;
7406;SDS011;3745;56.964;24.128;2023-08-30T21:33:29;0.00;;;0.00;;
7406;SDS011;3745;56.964;24.128;2023-08-30T21:35:54;0.10;;;0.10;;
7406;SDS011;3745;56.964;24.128;2023-08-30T21:38:20;0.00;;;0.00;;